Αρχική σελίδα
METAR-TAF:

METAR-TAF

Αεροδρόμια :

Schenck Field

Clarinda, Αϊόβα, Ηνωμένες Πολιτείες Αμερικής

γεωγραφικό πλάτος: 40-43N, γεωγραφικό μήκος: 095-02W, υψόμετρο: 303 μ

Παρών καιρός

Η αναφορά έγινε 23 λεπτά πριν, στις 09:15 UTC
Ήπιος άνεμος
Θερμοκρασία 18°C
Υγρασία 100%
Πίεση 1013 hPa
Ορατότητα: 6.4 χλμ
Καθαρός ουρανός
Αχλής

METAR: KICL 190915Z AUTO 00000KT 4SM BR CLR 18/18 A2990 RMK AO2

Χρόνος: 04:38 (09:38 UTC)


TAF: λείπει

Μετεωρολογικές αναφορές και προγνώσεις για περισσότερα από 4000 αεροδρόμια (δελτία METAR και TAF).

Οι διαθέσιμοι σταθμοί απεικονίζονται στο χάρτη με κίτρινες και κόκκινες κουκκίδες.

Μετακινήστε το ποντίκι πάνω από τις κουκκίδες για να δείτε το όνομα του σταθμού.

Στη συνέχεια, κάντε κλικ για να δείτε τις μετεωρολογικές αναφορές και τις προγνώσεις καιρού.

Για να αλλάξετε το χάρτη: κάντε κλικ στα πράσινα κουμπιά με τον μαύρο σταυρό για να ζουμάρετε, στο πράσινο κουμπί με την παύλα για να αφαιρέσετε το ζουμ ή στα πράσινα βέλη για να αντιπαραβάλλετε χάρτες.


METAR-TAF: